createdAt,value
2022-09-25T00:00:12.185Z,12.18
2022-09-25T00:01:12.746Z,12.08
2022-09-25T00:02:13.036Z,12.11
2022-09-25T00:03:13.136Z,12.11
2022-09-25T00:04:13.537Z,12.05
2022-09-25T00:05:14.200Z,12.05
2022-09-25T00:06:14.514Z,12.15
2022-09-25T00:07:15.768Z,12.21
2022-09-25T00:08:16.775Z,12.23
2022-09-25T00:09:17.195Z,12.3
2022-09-25T00:10:17.414Z,12.23
2022-09-25T00:11:18.073Z,12.2
2022-09-25T00:12:18.588Z,12.14
2022-09-25T00:13:19.087Z,12.25
2022-09-25T00:14:19.980Z,12.12
2022-09-25T00:15:20.896Z,12.26
2022-09-25T00:16:21.260Z,12.12
2022-09-25T00:17:21.714Z,12.21
2022-09-25T00:18:21.617Z,12.23
2022-09-25T00:19:22.205Z,12.28
2022-09-25T00:20:22.545Z,12.26
2022-09-25T00:21:23.765Z,12.23
2022-09-25T00:22:23.685Z,12.2
2022-09-25T00:23:24.182Z,12.1
2022-09-25T00:24:24.145Z,12.2
2022-09-25T00:25:25.378Z,12.21
2022-09-25T00:26:26.018Z,12.15
2022-09-25T00:27:26.528Z,12.07
2022-09-25T00:28:26.873Z,12.2
2022-09-25T00:29:27.993Z,12.2
2022-09-25T00:30:28.755Z,12.17
2022-09-25T00:31:29.283Z,12.18
2022-09-25T00:32:30.480Z,12.11
2022-09-25T00:33:30.398Z,12.1
2022-09-25T00:34:31.037Z,12.12
2022-09-25T00:35:32.254Z,12.07
2022-09-25T00:36:32.469Z,12.17
2022-09-25T00:37:33.093Z,12.08
2022-09-25T00:38:34.310Z,12.1
2022-09-25T00:39:34.775Z,12.07
2022-09-25T00:40:35.911Z,12.1
2022-09-25T00:41:36.309Z,12.08
2022-09-25T00:42:36.910Z,12.07
2022-09-25T00:43:37.113Z,12.03
2022-09-25T00:44:37.315Z,12.11
2022-09-25T00:45:37.511Z,12.02
2022-09-25T00:46:38.147Z,11.99
2022-09-25T00:47:38.107Z,12.03
2022-09-25T00:48:38.736Z,11.97
2022-09-25T00:49:40.066Z,12.05
2022-09-25T00:50:40.664Z,11.93
2022-09-25T00:51:41.318Z,12
2022-09-25T00:52:42.112Z,12
2022-09-25T00:53:42.311Z,11.99
2022-09-25T00:54:42.265Z,11.99
2022-09-25T00:55:42.894Z,11.97
2022-09-25T00:56:43.268Z,11.88
2022-09-25T00:57:43.572Z,11.95
2022-09-25T00:58:44.493Z,11.83
2022-09-25T00:59:44.925Z,11.95
2022-09-25T01:00:45.844Z,11.88
2022-09-25T01:01:46.910Z,11.89
2022-09-25T01:02:47.235Z,11.91
2022-09-25T01:03:47.191Z,11.88
2022-09-25T01:04:48.380Z,11.85
2022-09-25T01:05:48.330Z,11.85
2022-09-25T01:06:48.551Z,11.81
2022-09-25T01:07:49.193Z,11.85
2022-09-25T01:08:50.089Z,11.88
2022-09-25T01:09:50.630Z,11.89
2022-09-25T01:10:51.255Z,11.85
2022-09-25T01:11:52.183Z,11.86
2022-09-25T01:12:52.773Z,11.89
2022-09-25T01:13:53.421Z,11.83
2022-09-25T01:14:53.921Z,11.85
2022-09-25T01:15:54.824Z,11.85
2022-09-25T01:16:54.834Z,11.81
2022-09-25T01:17:55.504Z,11.78
2022-09-25T01:18:55.419Z,11.83
2022-09-25T01:19:58.887Z,11.8
2022-09-25T01:20:56.814Z,11.81
2022-09-25T01:21:57.441Z,11.81
2022-09-25T01:22:57.626Z,11.77
2022-09-25T01:23:58.824Z,11.77
2022-09-25T01:24:59.473Z,11.78
2022-09-25T01:26:00.684Z,11.86
2022-09-25T01:27:00.836Z,11.74
2022-09-25T01:28:02.074Z,11.78
2022-09-25T01:29:02.991Z,11.76
2022-09-25T01:30:03.834Z,11.85
2022-09-25T01:31:04.312Z,11.83
2022-09-25T01:32:03.881Z,11.8
2022-09-25T01:33:04.477Z,11.74
2022-09-25T01:34:05.733Z,11.78
2022-09-25T01:35:06.319Z,11.74
2022-09-25T01:36:06.241Z,11.74
2022-09-25T01:37:07.157Z,11.71
2022-09-25T01:38:07.481Z,11.71
2022-09-25T01:39:08.396Z,11.74
2022-09-25T01:40:09.220Z,11.81
2022-09-25T01:41:09.597Z,11.8
2022-09-25T01:42:09.514Z,11.76
2022-09-25T01:43:09.449Z,11.8
2022-09-25T01:44:10.021Z,11.74
2022-09-25T01:45:10.552Z,11.73
2022-09-25T01:46:10.861Z,11.78
2022-09-25T01:47:10.663Z,11.73
2022-09-25T01:48:11.599Z,11.73
2022-09-25T01:49:11.503Z,11.68
2022-09-25T01:50:12.197Z,11.67
2022-09-25T01:51:12.394Z,11.62
2022-09-25T01:52:12.741Z,11.63
2022-09-25T01:53:13.650Z,11.68
2022-09-25T01:54:14.010Z,11.62
2022-09-25T01:55:14.640Z,11.53
2022-09-25T01:56:15.561Z,11.58
2022-09-25T01:57:16.221Z,11.67
2022-09-25T01:58:16.731Z,11.59
2022-09-25T01:59:16.639Z,11.55
2022-09-25T02:00:17.655Z,11.58
2022-09-25T02:01:18.051Z,11.67
2022-09-25T02:02:18.345Z,11.58
2022-09-25T02:03:19.175Z,11.59
2022-09-25T02:04:19.812Z,11.59
2022-09-25T02:05:20.720Z,11.6
2022-09-25T02:06:20.919Z,11.59
2022-09-25T02:07:21.817Z,11.58
2022-09-25T02:08:22.481Z,11.58
2022-09-25T02:09:23.397Z,11.59
2022-09-25T02:10:24.728Z,11.67
2022-09-25T02:11:25.222Z,11.59
2022-09-25T02:12:25.210Z,11.71
2022-09-25T02:13:25.892Z,11.58
2022-09-25T02:14:25.818Z,11.6
2022-09-25T02:15:26.735Z,11.55
2022-09-25T02:16:27.374Z,11.63
2022-09-25T02:17:27.498Z,11.65
2022-09-25T02:18:27.694Z,11.6
2022-09-25T02:19:28.190Z,11.6
2022-09-25T02:20:28.190Z,11.63
2022-09-25T02:21:28.120Z,11.65
2022-09-25T02:22:29.049Z,11.59
2022-09-25T02:23:29.666Z,11.67
2022-09-25T02:24:30.289Z,11.59
2022-09-25T02:25:31.215Z,11.59
2022-09-25T02:26:31.832Z,11.55
2022-09-25T02:27:33.160Z,11.55
2022-09-25T02:28:33.482Z,11.67
2022-09-25T02:29:33.400Z,11.55
2022-09-25T02:30:34.391Z,11.63
2022-09-25T02:31:34.197Z,11.6
2022-09-25T02:32:35.735Z,11.56
2022-09-25T02:33:35.356Z,11.59
2022-09-25T02:34:36.275Z,11.58
2022-09-25T02:35:37.504Z,11.56
2022-09-25T02:36:38.169Z,11.58
2022-09-25T02:37:39.089Z,11.6
2022-09-25T02:38:40.033Z,11.58
2022-09-25T02:39:40.529Z,11.62
2022-09-25T02:40:41.148Z,11.62
2022-09-25T02:41:41.824Z,11.6
2022-09-25T02:42:42.342Z,11.58
2022-09-25T02:43:42.964Z,11.58
2022-09-25T02:44:42.883Z,11.59
2022-09-25T02:45:44.046Z,11.63
2022-09-25T02:46:44.465Z,11.55
2022-09-25T02:47:44.383Z,11.59
2022-09-25T02:48:44.725Z,11.59
2022-09-25T02:49:44.767Z,11.6
2022-09-25T02:50:45.590Z,11.58
2022-09-25T02:51:46.231Z,11.58
2022-09-25T02:52:47.149Z,11.58
2022-09-25T02:53:47.362Z,11.62
2022-09-25T02:54:48.286Z,11.59
2022-09-25T02:55:48.516Z,11.6
2022-09-25T02:56:49.136Z,11.56
2022-09-25T02:57:50.283Z,11.58
2022-09-25T02:58:50.510Z,11.53
2022-09-25T02:59:51.003Z,11.55
2022-09-25T03:00:51.064Z,11.58
2022-09-25T03:01:51.439Z,11.59
2022-09-25T03:02:58.451Z,11.6
2022-09-25T03:03:52.122Z,11.62
2022-09-25T03:04:53.328Z,11.63
2022-09-25T03:05:53.972Z,11.62
2022-09-25T03:06:54.633Z,11.6
2022-09-25T03:07:55.273Z,11.62
2022-09-25T03:08:55.486Z,11.58
2022-09-25T03:09:56.407Z,11.63
2022-09-25T03:10:57.466Z,11.56
2022-09-25T03:11:58.384Z,11.6
2022-09-25T03:12:58.611Z,11.59
2022-09-25T03:13:59.120Z,11.56
2022-09-25T03:14:59.497Z,11.59
2022-09-25T03:15:59.363Z,11.59
2022-09-25T03:17:00.018Z,11.59
2022-09-25T03:18:00.950Z,11.55
2022-09-25T03:19:01.594Z,11.58
2022-09-25T03:20:02.498Z,11.56
2022-09-25T03:21:02.936Z,11.58
2022-09-25T03:22:04.131Z,11.58
2022-09-25T03:23:04.347Z,11.6
2022-09-25T03:24:04.648Z,11.58
2022-09-25T03:25:04.960Z,11.59
2022-09-25T03:26:05.629Z,11.63
2022-09-25T03:27:06.375Z,11.56
2022-09-25T03:28:07.036Z,11.58
2022-09-25T03:29:07.274Z,11.55
2022-09-25T03:30:08.498Z,11.58
2022-09-25T03:31:08.794Z,11.62
2022-09-25T03:32:09.681Z,11.58
2022-09-25T03:33:10.622Z,11.62
2022-09-25T03:34:11.426Z,11.59
2022-09-25T03:35:11.691Z,11.59
2022-09-25T03:36:12.608Z,11.55
2022-09-25T03:37:13.508Z,11.55
2022-09-25T03:38:14.003Z,11.53
2022-09-25T03:39:14.341Z,11.58
2022-09-25T03:40:15.785Z,11.52
2022-09-25T03:41:16.270Z,11.55
2022-09-25T03:42:16.597Z,11.51
2022-09-25T03:43:16.746Z,11.55
2022-09-25T03:44:17.134Z,11.56
2022-09-25T03:45:18.077Z,11.55
2022-09-25T03:46:18.178Z,11.55
2022-09-25T03:47:18.999Z,11.48
2022-09-25T03:48:19.914Z,11.45
2022-09-25T03:49:20.536Z,11.58
2022-09-25T03:50:20.834Z,11.56
2022-09-25T03:51:21.259Z,11.58
2022-09-25T03:52:21.480Z,11.56
2022-09-25T03:53:22.679Z,11.59
2022-09-25T03:54:23.307Z,11.6
2022-09-25T03:55:23.523Z,11.55
2022-09-25T03:56:24.741Z,11.63
2022-09-25T03:57:24.391Z,11.58
2022-09-25T03:58:25.608Z,11.56
2022-09-25T03:59:26.214Z,11.56
2022-09-25T04:00:26.433Z,11.55
2022-09-25T04:01:26.617Z,11.59
2022-09-25T04:02:27.959Z,11.6
2022-09-25T04:03:28.536Z,11.58
2022-09-25T04:04:29.439Z,11.55
2022-09-25T04:05:30.054Z,11.55
2022-09-25T04:06:30.986Z,11.55
2022-09-25T04:07:30.614Z,11.58
2022-09-25T04:08:31.657Z,11.58
2022-09-25T04:09:32.865Z,11.6
2022-09-25T04:10:32.505Z,11.56
2022-09-25T04:11:33.271Z,11.58
2022-09-25T04:12:33.611Z,11.52
2022-09-25T04:13:34.534Z,11.56
2022-09-25T04:14:35.044Z,11.53
2022-09-25T04:15:34.977Z,11.56
2022-09-25T04:16:35.837Z,11.55
2022-09-25T04:17:35.719Z,11.52
2022-09-25T04:18:36.370Z,11.59
2022-09-25T04:19:36.583Z,11.55
2022-09-25T04:20:36.505Z,11.55
2022-09-25T04:21:37.524Z,11.53
2022-09-25T04:22:38.442Z,11.58
2022-09-25T04:23:38.342Z,11.59
2022-09-25T04:24:38.964Z,11.6
2022-09-25T04:25:39.590Z,11.56
2022-09-25T04:26:40.517Z,11.56
2022-09-25T04:27:40.842Z,11.56
2022-09-25T04:28:42.131Z,11.56
2022-09-25T04:29:42.653Z,11.62
2022-09-25T04:30:43.254Z,11.51
2022-09-25T04:31:43.674Z,11.56
2022-09-25T04:32:43.461Z,11.63
2022-09-25T04:33:44.081Z,11.53
2022-09-25T04:34:44.571Z,11.53
2022-09-25T04:35:44.494Z,11.53
2022-09-25T04:36:45.410Z,11.52
2022-09-25T04:37:46.605Z,11.62
2022-09-25T04:38:47.503Z,11.56
2022-09-25T04:39:47.128Z,11.56
2022-09-25T04:40:48.345Z,11.53
2022-09-25T04:41:48.224Z,11.65
2022-09-25T04:42:48.850Z,11.53
2022-09-25T04:43:49.092Z,11.55
2022-09-25T04:44:49.118Z,11.52
2022-09-25T04:45:50.775Z,11.56
2022-09-25T04:46:51.069Z,11.6
2022-09-25T04:47:51.320Z,11.44
2022-09-25T04:48:52.244Z,11.52
2022-09-25T04:49:52.882Z,11.53
2022-09-25T04:50:53.206Z,11.53
2022-09-25T04:51:53.660Z,11.56
2022-09-25T04:52:54.857Z,11.52
2022-09-25T04:53:54.782Z,11.53
2022-09-25T04:54:55.729Z,11.49
2022-09-25T04:55:55.372Z,11.44
2022-09-25T04:56:56.182Z,11.52
2022-09-25T04:58:05.305Z,11.53
2022-09-25T04:58:56.326Z,11.48
2022-09-25T04:59:56.563Z,11.44
2022-09-25T05:00:57.773Z,11.48
2022-09-25T05:01:58.318Z,11.55
2022-09-25T05:02:58.359Z,11.52
2022-09-25T05:03:59.382Z,11.56
2022-09-25T05:04:59.635Z,11.45
2022-09-25T05:05:59.874Z,11.52
2022-09-25T05:07:00.799Z,11.51
2022-09-25T05:08:01.421Z,11.52
2022-09-25T05:09:01.746Z,11.44
2022-09-25T05:10:03.231Z,11.49
2022-09-25T05:11:03.742Z,11.53
2022-09-25T05:12:04.098Z,11.56
2022-09-25T05:13:04.025Z,11.55
2022-09-25T05:14:04.955Z,11.53
2022-09-25T05:15:05.464Z,11.53
2022-09-25T05:16:05.687Z,11.58
2022-09-25T05:17:06.061Z,11.58
2022-09-25T05:18:06.699Z,11.51
2022-09-25T05:19:07.897Z,11.51
2022-09-25T05:20:08.805Z,11.51
2022-09-25T05:21:09.023Z,11.51
2022-09-25T05:22:10.007Z,11.67
2022-09-25T05:23:11.205Z,11.56
2022-09-25T05:24:11.828Z,11.55
2022-09-25T05:25:12.035Z,11.59
2022-09-25T05:26:12.682Z,11.53
2022-09-25T05:27:13.702Z,11.52
2022-09-25T05:28:13.921Z,11.59
2022-09-25T05:29:14.890Z,11.58
2022-09-25T05:30:14.832Z,11.51
2022-09-25T05:31:15.911Z,11.6
2022-09-25T05:32:15.978Z,11.55
2022-09-25T05:33:16.581Z,11.56
2022-09-25T05:34:17.186Z,11.52
2022-09-25T05:35:17.683Z,11.52
2022-09-25T05:36:17.885Z,11.59
2022-09-25T05:37:17.897Z,11.51
2022-09-25T05:38:18.244Z,11.53
2022-09-25T05:39:20.479Z,11.53
2022-09-25T05:40:19.700Z,11.55
2022-09-25T05:41:20.518Z,11.53
2022-09-25T05:42:22.007Z,11.56
2022-09-25T05:43:21.918Z,11.6
2022-09-25T05:44:23.161Z,11.68
2022-09-25T05:45:23.372Z,11.62
2022-09-25T05:46:24.692Z,11.56
2022-09-25T05:47:24.792Z,11.62
2022-09-25T05:48:25.415Z,11.63
2022-09-25T05:49:26.035Z,11.56
2022-09-25T05:50:27.257Z,11.63
2022-09-25T05:51:28.179Z,11.7
2022-09-25T05:52:28.228Z,11.63
2022-09-25T05:53:29.442Z,11.62
2022-09-25T05:54:30.064Z,11.68
2022-09-25T05:55:31.261Z,11.74
2022-09-25T05:56:31.483Z,11.73
2022-09-25T05:57:32.387Z,11.68
2022-09-25T05:58:32.313Z,11.71
2022-09-25T05:59:32.615Z,11.76
2022-09-25T06:00:32.892Z,11.68
2022-09-25T06:01:33.106Z,11.67
2022-09-25T06:02:34.396Z,11.77
2022-09-25T06:03:34.187Z,11.71
2022-09-25T06:04:35.389Z,11.71
2022-09-25T06:05:35.590Z,11.65
2022-09-25T06:06:36.209Z,11.68
2022-09-25T06:07:36.119Z,11.73
2022-09-25T06:08:37.233Z,11.71
2022-09-25T06:09:37.862Z,11.71
2022-09-25T06:10:38.357Z,11.78
2022-09-25T06:11:38.697Z,11.7
2022-09-25T06:12:39.204Z,11.74
2022-09-25T06:13:39.845Z,11.76
2022-09-25T06:14:40.133Z,11.74
2022-09-25T06:15:41.856Z,11.78
2022-09-25T06:16:41.930Z,11.88
2022-09-25T06:17:42.855Z,11.74
2022-09-25T06:18:43.206Z,11.78
2022-09-25T06:19:43.888Z,11.78
2022-09-25T06:20:44.800Z,11.74
2022-09-25T06:21:46.022Z,11.74
2022-09-25T06:22:47.033Z,11.78
2022-09-25T06:23:47.255Z,11.86
2022-09-25T06:24:47.450Z,11.76
2022-09-25T06:25:47.370Z,11.78
2022-09-25T06:26:47.993Z,11.78
2022-09-25T06:27:48.524Z,11.77
2022-09-25T06:28:48.735Z,11.83
2022-09-25T06:29:49.514Z,11.78
2022-09-25T06:30:49.652Z,11.77
2022-09-25T06:31:50.551Z,11.74
2022-09-25T06:32:50.574Z,11.86
2022-09-25T06:33:51.076Z,11.83
2022-09-25T06:34:51.278Z,11.83
2022-09-25T06:35:52.489Z,11.86
2022-09-25T06:36:52.707Z,11.88
2022-09-25T06:37:53.650Z,11.88
2022-09-25T06:38:54.248Z,11.95
2022-09-25T06:39:55.466Z,11.91
2022-09-25T06:41:00.824Z,11.89
2022-09-25T06:41:55.999Z,11.89
2022-09-25T06:42:56.738Z,11.95
2022-09-25T06:43:57.662Z,11.96
2022-09-25T06:44:57.913Z,12.02
2022-09-25T06:45:58.337Z,12.03
2022-09-25T06:46:59.100Z,12.03
2022-09-25T06:47:59.414Z,12.08
2022-09-25T06:49:00.052Z,12.08
2022-09-25T06:50:00.979Z,12.21
2022-09-25T06:51:01.897Z,12.23
2022-09-25T06:52:03.099Z,12.18
2022-09-25T06:53:03.424Z,12.21
2022-09-25T06:54:04.055Z,12.2
2022-09-25T06:55:04.053Z,12.21
2022-09-25T06:56:04.980Z,12.26
2022-09-25T06:57:05.301Z,12.29
2022-09-25T06:58:06.240Z,12.32
2022-09-25T06:59:06.456Z,12.33
2022-09-25T07:00:07.226Z,12.37
2022-09-25T07:01:14.893Z,12.33
2022-09-25T07:02:09.132Z,12.36
2022-09-25T07:03:09.665Z,12.4
2022-09-25T07:04:10.727Z,12.39
2022-09-25T07:05:10.955Z,12.4
2022-09-25T07:06:11.458Z,12.33
2022-09-25T07:07:12.141Z,12.36
2022-09-25T07:08:12.661Z,12.3
2022-09-25T07:09:12.858Z,12.29
2022-09-25T07:10:13.763Z,12.39
2022-09-25T07:11:14.134Z,12.29
2022-09-25T07:12:14.343Z,12.26
2022-09-25T07:13:14.603Z,12.32
2022-09-25T07:14:15.529Z,12.18
2022-09-25T07:15:15.460Z,12.29
2022-09-25T07:16:16.061Z,12.15
2022-09-25T07:17:16.196Z,12.23
2022-09-25T07:18:17.116Z,12.32
2022-09-25T07:19:17.730Z,12.25
2022-09-25T07:20:18.407Z,12.25
2022-09-25T07:21:19.355Z,12.23
2022-09-25T07:22:19.274Z,12.29
2022-09-25T07:23:20.565Z,12.25
2022-09-25T07:24:20.466Z,12.2
2022-09-25T07:25:20.392Z,12.3
2022-09-25T07:26:21.624Z,12.3
2022-09-25T07:27:22.537Z,12.35
2022-09-25T07:28:23.559Z,12.37
2022-09-25T07:29:24.064Z,12.36
2022-09-25T07:30:24.652Z,12.35
2022-09-25T07:31:25.251Z,12.33
2022-09-25T07:32:25.392Z,12.36
2022-09-25T07:33:25.308Z,12.44
2022-09-25T07:34:25.933Z,12.4
2022-09-25T07:35:25.881Z,12.47
2022-09-25T07:36:26.205Z,12.47
2022-09-25T07:37:26.855Z,12.54
2022-09-25T07:38:28.135Z,12.51
2022-09-25T07:39:29.060Z,12.53
2022-09-25T07:40:29.754Z,12.48
2022-09-25T07:41:29.576Z,12.57
2022-09-25T07:42:30.520Z,12.61
2022-09-25T07:43:31.568Z,12.54
2022-09-25T07:44:49.127Z,12.65
2022-09-25T07:45:32.732Z,12.66
2022-09-25T07:46:32.809Z,12.86
2022-09-25T07:47:33.954Z,12.88
2022-09-25T07:48:34.623Z,12.91
2022-09-25T07:49:35.543Z,13.01
2022-09-25T07:50:36.475Z,13.02
2022-09-25T07:51:36.695Z,13.02
2022-09-25T07:52:37.615Z,13.08
2022-09-25T07:53:37.959Z,13.17
2022-09-25T07:54:38.587Z,13.16
2022-09-25T07:55:39.215Z,13.19
2022-09-25T07:56:40.843Z,13.23
2022-09-25T07:57:41.046Z,13.23
2022-09-25T07:58:41.983Z,13.39
2022-09-25T07:59:41.927Z,13.26
2022-09-25T08:00:42.581Z,13.42
2022-09-25T08:01:54.509Z,13.45
2022-09-25T08:02:43.916Z,13.39
2022-09-25T08:03:44.026Z,13.4
2022-09-25T08:04:44.669Z,13.33
2022-09-25T08:05:45.292Z,13.39
2022-09-25T08:06:46.216Z,13.46
2022-09-25T08:07:47.145Z,13.43
2022-09-25T08:08:47.653Z,13.47
2022-09-25T08:09:47.286Z,13.49
2022-09-25T08:10:48.257Z,13.54
2022-09-25T08:11:48.459Z,13.58
2022-09-25T08:12:49.675Z,13.54
2022-09-25T08:13:50.437Z,13.65
2022-09-25T08:14:50.657Z,13.65
2022-09-25T08:15:51.524Z,13.73
2022-09-25T08:16:52.037Z,13.78
2022-09-25T08:17:52.665Z,13.68
2022-09-25T08:18:53.602Z,13.78
2022-09-25T08:19:54.540Z,13.75
2022-09-25T08:20:55.489Z,13.79
2022-09-25T08:21:56.694Z,13.78
2022-09-25T08:22:56.746Z,13.76
2022-09-25T08:23:57.842Z,13.82
2022-09-25T08:24:58.794Z,13.78
2022-09-25T08:25:59.419Z,13.83
2022-09-25T08:27:00.361Z,13.85
2022-09-25T08:28:00.560Z,13.79
2022-09-25T08:29:01.071Z,13.86
2022-09-25T08:30:01.583Z,13.86
2022-09-25T08:31:01.837Z,13.87
2022-09-25T08:32:02.259Z,13.98
2022-09-25T08:33:02.179Z,13.97
2022-09-25T08:34:41.782Z,14.07
2022-09-25T08:35:03.422Z,14.08
2022-09-25T08:36:04.047Z,14.04
2022-09-25T08:37:04.428Z,14.07
2022-09-25T08:38:04.779Z,14.13
2022-09-25T08:39:05.431Z,14.16
2022-09-25T08:40:06.360Z,14.19
2022-09-25T08:41:07.649Z,14.2
2022-09-25T08:42:07.960Z,14.37
2022-09-25T08:43:07.890Z,14.38
2022-09-25T08:44:08.907Z,14.37
2022-09-25T08:45:28.583Z,14.37
2022-09-25T08:46:10.366Z,14.48
2022-09-25T08:47:10.774Z,14.55
2022-09-25T08:48:11.234Z,14.56
2022-09-25T08:49:12.447Z,14.58
2022-09-25T08:50:12.647Z,14.61
2022-09-25T08:51:13.277Z,14.74
2022-09-25T08:52:14.385Z,14.78
2022-09-25T08:53:14.313Z,14.86
2022-09-25T08:54:15.994Z,14.81
2022-09-25T08:55:16.325Z,14.93
2022-09-25T08:56:17.530Z,15
2022-09-25T08:57:18.163Z,15
2022-09-25T08:58:19.067Z,15.04
2022-09-25T08:59:19.705Z,15.12
2022-09-25T09:00:20.035Z,15.1
2022-09-25T09:01:21.176Z,15.04
2022-09-25T09:02:21.880Z,15.12
2022-09-25T09:03:22.689Z,15.22
2022-09-25T09:04:23.126Z,15.25
2022-09-25T09:05:23.353Z,15.27
2022-09-25T09:06:23.980Z,15.32
2022-09-25T09:07:32.590Z,15.45
2022-09-25T09:08:24.925Z,15.41
2022-09-25T09:09:25.872Z,15.55
2022-09-25T09:10:26.507Z,15.6
2022-09-25T09:11:27.441Z,15.67
2022-09-25T09:12:27.346Z,15.66
2022-09-25T09:13:28.271Z,15.7
2022-09-25T09:14:28.742Z,15.81
2022-09-25T09:15:28.757Z,15.83
2022-09-25T09:16:30.265Z,15.85
2022-09-25T09:17:30.779Z,15.85
2022-09-25T09:18:31.687Z,15.91
2022-09-25T09:19:31.892Z,15.92
2022-09-25T09:20:32.098Z,16
2022-09-25T09:21:31.726Z,16.02
2022-09-25T09:22:32.935Z,16.05
2022-09-25T09:23:33.145Z,15.9
2022-09-25T09:24:34.190Z,16
2022-09-25T09:25:34.655Z,15.98
2022-09-25T09:26:35.281Z,15.96
2022-09-25T09:27:36.480Z,15.94
2022-09-25T09:28:37.110Z,15.96
2022-09-25T09:29:38.445Z,15.94
2022-09-25T09:30:38.474Z,15.91
2022-09-25T09:31:39.572Z,15.9
2022-09-25T09:32:40.175Z,15.88
2022-09-25T09:33:40.805Z,15.78
2022-09-25T09:35:10.018Z,15.84
2022-09-25T09:35:41.974Z,15.84
2022-09-25T09:36:42.622Z,15.83
2022-09-25T09:37:43.823Z,15.84
2022-09-25T09:38:44.329Z,15.84
2022-09-25T09:39:44.540Z,15.84
2022-09-25T09:40:45.148Z,15.83
2022-09-25T09:41:45.263Z,15.83
2022-09-25T09:42:46.492Z,15.85
2022-09-25T09:43:47.062Z,15.81
2022-09-25T09:44:47.703Z,15.81
2022-09-25T09:45:47.635Z,15.81
2022-09-25T09:46:47.915Z,15.87
2022-09-25T09:47:48.510Z,15.84
2022-09-25T09:48:49.436Z,15.96
2022-09-25T09:49:50.360Z,15.98
2022-09-25T09:50:57.862Z,15.96
2022-09-25T09:51:52.067Z,15.92
2022-09-25T09:52:51.693Z,15.92
2022-09-25T09:53:52.030Z,15.9
2022-09-25T09:54:53.381Z,16.1
2022-09-25T09:55:53.616Z,16.06
2022-09-25T09:56:54.356Z,16.05
2022-09-25T09:57:55.305Z,16.13
2022-09-25T09:58:55.534Z,16.26
2022-09-25T10:00:05.199Z,16.37
2022-09-25T10:00:57.248Z,16.39
2022-09-25T10:01:58.340Z,16.43
2022-09-25T10:02:58.428Z,16.49
2022-09-25T10:03:58.897Z,16.47
2022-09-25T10:04:59.411Z,16.47
2022-09-25T10:05:59.618Z,16.54
2022-09-25T10:06:59.554Z,16.55
2022-09-25T10:07:59.753Z,16.58
2022-09-25T10:09:00.972Z,16.57
2022-09-25T10:10:01.212Z,16.54
2022-09-25T10:11:01.162Z,16.54
2022-09-25T10:12:01.391Z,16.47
2022-09-25T10:13:06.812Z,16.43
2022-09-25T10:14:02.476Z,16.49
2022-09-25T10:15:03.205Z,16.43
2022-09-25T10:16:03.853Z,16.47
2022-09-25T10:17:04.452Z,16.47
2022-09-25T10:18:05.053Z,16.36
2022-09-25T10:19:05.552Z,16.34
2022-09-25T10:20:05.825Z,16.51
2022-09-25T10:21:06.754Z,16.54
2022-09-25T10:22:06.689Z,16.54
2022-09-25T10:23:09.016Z,16.5
2022-09-25T10:24:07.961Z,16.43
2022-09-25T10:25:08.587Z,16.54
2022-09-25T10:26:08.517Z,16.43
2022-09-25T10:27:09.156Z,16.41
2022-09-25T10:28:10.094Z,16.46
2022-09-25T10:29:10.599Z,16.49
2022-09-25T10:30:11.357Z,16.41
2022-09-25T10:31:11.849Z,16.4
2022-09-25T10:32:12.711Z,16.36
2022-09-25T10:33:13.777Z,16.34
2022-09-25T10:34:14.788Z,16.36
2022-09-25T10:35:15.509Z,16.29
2022-09-25T10:36:15.740Z,16.31
2022-09-25T10:37:15.947Z,16.32
2022-09-25T10:38:16.168Z,16.28
2022-09-25T10:39:49.425Z,16.26
2022-09-25T10:40:17.718Z,16.32
2022-09-25T10:41:18.177Z,16.31
2022-09-25T10:42:18.678Z,16.25
2022-09-25T10:43:19.181Z,16.22
2022-09-25T10:44:19.247Z,16.21
2022-09-25T10:45:19.844Z,16.17
2022-09-25T10:46:20.009Z,16.18
2022-09-25T10:47:20.677Z,16.17
2022-09-25T10:48:21.346Z,16.09
2022-09-25T10:49:21.849Z,16.12
2022-09-25T10:50:21.778Z,16.03
2022-09-25T10:51:23.441Z,15.92
2022-09-25T10:52:23.344Z,15.92
2022-09-25T10:53:24.557Z,15.98
2022-09-25T10:54:24.756Z,15.9
2022-09-25T10:55:25.633Z,15.85
2022-09-25T10:56:25.554Z,15.84
2022-09-25T10:57:25.911Z,15.76
2022-09-25T10:58:26.840Z,15.76
2022-09-25T10:59:28.377Z,15.75
2022-09-25T11:00:28.932Z,15.72
2022-09-25T11:01:29.374Z,15.63
2022-09-25T11:02:29.797Z,15.59
2022-09-25T11:03:30.314Z,15.54
2022-09-25T11:04:31.257Z,15.54
2022-09-25T11:05:31.718Z,15.51
2022-09-25T11:06:32.641Z,15.5
2022-09-25T11:07:33.268Z,15.45
2022-09-25T11:08:34.194Z,15.43
2022-09-25T11:09:34.696Z,15.39
2022-09-25T11:10:35.019Z,15.43
2022-09-25T11:11:35.240Z,15.39
2022-09-25T11:12:35.460Z,15.39
2022-09-25T11:13:35.407Z,15.43
2022-09-25T11:14:36.616Z,15.33
2022-09-25T11:15:37.110Z,15.35
2022-09-25T11:16:38.176Z,15.32
2022-09-25T11:17:38.729Z,15.26
2022-09-25T11:18:39.982Z,15.25
2022-09-25T11:19:40.902Z,15.14
2022-09-25T11:20:41.844Z,15.15
2022-09-25T11:21:42.778Z,15.15
2022-09-25T11:22:43.035Z,15.05
2022-09-25T11:23:43.954Z,15.17
2022-09-25T11:24:43.853Z,15.02
2022-09-25T11:25:44.289Z,15.17
2022-09-25T11:26:44.915Z,15.1
2022-09-25T11:27:45.188Z,15.04
2022-09-25T11:28:45.266Z,15
2022-09-25T11:29:45.625Z,15.05
2022-09-25T11:30:47.429Z,14.97
2022-09-25T11:31:47.802Z,14.97
2022-09-25T11:32:53.289Z,15.05
2022-09-25T11:33:49.629Z,14.96
2022-09-25T11:34:50.195Z,14.96
2022-09-25T11:35:50.742Z,15.1
2022-09-25T11:36:50.962Z,14.86
2022-09-25T11:37:51.921Z,14.97
2022-09-25T11:38:51.811Z,14.81
2022-09-25T11:39:52.310Z,14.78
2022-09-25T11:40:53.768Z,14.86
2022-09-25T11:41:54.005Z,14.73
2022-09-25T11:42:54.936Z,14.7
2022-09-25T11:43:58.842Z,14.63
2022-09-25T11:44:56.470Z,14.62
2022-09-25T11:45:57.445Z,14.61
2022-09-25T11:46:57.428Z,14.66
2022-09-25T11:47:57.682Z,14.58
2022-09-25T11:48:57.618Z,14.62
2022-09-25T11:49:58.788Z,14.66
2022-09-25T11:50:59.115Z,14.59
2022-09-25T11:52:01.085Z,14.44
2022-09-25T11:53:00.000Z,14.44
2022-09-25T11:54:34.097Z,14.44
2022-09-25T11:55:00.782Z,14.34
2022-09-25T11:56:01.806Z,14.41
2022-09-25T11:57:02.015Z,14.45
2022-09-25T11:58:02.078Z,14.41
2022-09-25T11:59:03.571Z,14.45
2022-09-25T12:00:03.817Z,14.51
2022-09-25T12:01:05.174Z,14.52
2022-09-25T12:02:05.905Z,14.48
2022-09-25T12:03:05.936Z,14.52
2022-09-25T12:04:06.298Z,14.56
2022-09-25T12:05:07.256Z,14.58
2022-09-25T12:06:07.989Z,14.56
2022-09-25T12:07:08.909Z,14.44
2022-09-25T12:08:09.814Z,14.43
2022-09-25T12:09:10.503Z,14.38
2022-09-25T12:10:11.269Z,14.36
2022-09-25T12:11:11.916Z,14.36
2022-09-25T12:12:12.149Z,14.36
2022-09-25T12:13:13.074Z,14.4
2022-09-25T12:14:13.717Z,14.25
2022-09-25T12:15:14.222Z,14.36
2022-09-25T12:16:14.776Z,14.4
2022-09-25T12:17:15.833Z,14.51
2022-09-25T12:18:16.789Z,14.53
2022-09-25T12:19:17.195Z,14.66
2022-09-25T12:20:17.827Z,14.66
2022-09-25T12:21:18.916Z,14.78
2022-09-25T12:22:18.810Z,14.78
2022-09-25T12:23:19.731Z,14.73
2022-09-25T12:24:20.654Z,14.89
2022-09-25T12:25:20.768Z,14.87
2022-09-25T12:26:21.479Z,14.99
2022-09-25T12:27:21.697Z,15.02
2022-09-25T12:28:21.922Z,15.05
2022-09-25T12:29:22.139Z,15.07
2022-09-25T12:30:23.022Z,15.19
2022-09-25T12:31:24.405Z,15.12
2022-09-25T12:32:24.066Z,15.17
2022-09-25T12:33:25.017Z,15.23
2022-09-25T12:34:26.529Z,15.26
2022-09-25T12:35:27.137Z,15.22
2022-09-25T12:36:27.274Z,15.15
2022-09-25T12:37:33.308Z,15.19
2022-09-25T12:38:28.988Z,15.22
2022-09-25T12:39:29.613Z,15.18
2022-09-25T12:40:31.076Z,15.26
2022-09-25T12:41:31.703Z,15.18
2022-09-25T12:42:31.609Z,15.17
2022-09-25T12:43:32.226Z,15.14
2022-09-25T12:44:33.852Z,15.12
2022-09-25T12:45:33.777Z,15.17
2022-09-25T12:46:34.413Z,15.23
2022-09-25T12:47:34.640Z,15.19
2022-09-25T12:48:35.171Z,15.26
2022-09-25T12:49:35.684Z,15.3
2022-09-25T12:50:35.908Z,15.33
2022-09-25T12:51:36.130Z,15.32
2022-09-25T12:52:36.327Z,15.32
2022-09-25T12:53:36.946Z,15.33
2022-09-25T12:54:37.177Z,15.35
2022-09-25T12:55:37.839Z,15.45
2022-09-25T12:56:38.458Z,15.39
2022-09-25T12:57:39.084Z,15.48
2022-09-25T12:58:39.709Z,15.45
2022-09-25T12:59:46.909Z,15.55
2022-09-25T13:00:40.431Z,15.5
2022-09-25T13:01:41.060Z,15.52
2022-09-25T13:02:41.084Z,15.65